sensor_id;sensor_type;location;lat;lon;timestamp;P1;durP1;ratioP1;P2;durP2;ratioP2
3733;SDS011;1882;52.256;8.874;2024-02-15T00:00:59;38.70;;;25.03;;
3733;SDS011;1882;52.256;8.874;2024-02-15T00:03:27;35.37;;;24.07;;
3733;SDS011;1882;52.256;8.874;2024-02-15T00:05:54;38.87;;;25.50;;
3733;SDS011;1882;52.256;8.874;2024-02-15T00:08:21;37.20;;;24.23;;
3733;SDS011;1882;52.256;8.874;2024-02-15T00:10:47;38.20;;;23.33;;
3733;SDS011;1882;52.256;8.874;2024-02-15T00:13:14;41.30;;;25.83;;
3733;SDS011;1882;52.256;8.874;2024-02-15T00:15:41;36.50;;;24.00;;
3733;SDS011;1882;52.256;8.874;2024-02-15T00:18:08;36.47;;;23.87;;
3733;SDS011;1882;52.256;8.874;2024-02-15T00:20:35;32.50;;;22.03;;
3733;SDS011;1882;52.256;8.874;2024-02-15T00:23:02;30.93;;;22.30;;
3733;SDS011;1882;52.256;8.874;2024-02-15T00:25:29;36.63;;;24.43;;
3733;SDS011;1882;52.256;8.874;2024-02-15T00:27:57;32.53;;;22.90;;
3733;SDS011;1882;52.256;8.874;2024-02-15T00:30:26;32.97;;;22.07;;
3733;SDS011;1882;52.256;8.874;2024-02-15T00:32:53;34.20;;;23.17;;
3733;SDS011;1882;52.256;8.874;2024-02-15T00:35:21;33.00;;;21.33;;
3733;SDS011;1882;52.256;8.874;2024-02-15T00:37:48;39.87;;;25.40;;
3733;SDS011;1882;52.256;8.874;2024-02-15T00:40:16;41.30;;;23.30;;
3733;SDS011;1882;52.256;8.874;2024-02-15T00:42:43;35.47;;;22.70;;
3733;SDS011;1882;52.256;8.874;2024-02-15T00:45:10;33.93;;;21.23;;
3733;SDS011;1882;52.256;8.874;2024-02-15T00:47:38;31.03;;;21.20;;
3733;SDS011;1882;52.256;8.874;2024-02-15T00:50:09;35.17;;;22.37;;
3733;SDS011;1882;52.256;8.874;2024-02-15T00:52:36;35.40;;;20.40;;
3733;SDS011;1882;52.256;8.874;2024-02-15T00:55:03;40.10;;;22.97;;
3733;SDS011;1882;52.256;8.874;2024-02-15T00:57:31;36.00;;;21.50;;
3733;SDS011;1882;52.256;8.874;2024-02-15T00:59:58;36.20;;;22.43;;
3733;SDS011;1882;52.256;8.874;2024-02-15T01:02:26;29.60;;;18.60;;
3733;SDS011;1882;52.256;8.874;2024-02-15T01:04:54;31.80;;;20.70;;
3733;SDS011;1882;52.256;8.874;2024-02-15T01:07:23;29.87;;;19.90;;
3733;SDS011;1882;52.256;8.874;2024-02-15T01:09:53;30.90;;;19.37;;
3733;SDS011;1882;52.256;8.874;2024-02-15T01:12:21;24.00;;;17.40;;
3733;SDS011;1882;52.256;8.874;2024-02-15T01:14:48;27.90;;;19.17;;
3733;SDS011;1882;52.256;8.874;2024-02-15T01:17:15;28.17;;;19.50;;
3733;SDS011;1882;52.256;8.874;2024-02-15T01:19:44;31.63;;;19.00;;
3733;SDS011;1882;52.256;8.874;2024-02-15T01:22:11;25.80;;;18.27;;
3733;SDS011;1882;52.256;8.874;2024-02-15T01:24:39;24.87;;;17.30;;
3733;SDS011;1882;52.256;8.874;2024-02-15T01:27:06;29.13;;;18.80;;
3733;SDS011;1882;52.256;8.874;2024-02-15T01:29:33;21.07;;;16.40;;
3733;SDS011;1882;52.256;8.874;2024-02-15T01:32:01;23.60;;;17.27;;
3733;SDS011;1882;52.256;8.874;2024-02-15T01:34:28;24.30;;;17.20;;
3733;SDS011;1882;52.256;8.874;2024-02-15T01:36:55;25.10;;;16.97;;
3733;SDS011;1882;52.256;8.874;2024-02-15T01:39:22;27.43;;;17.57;;
3733;SDS011;1882;52.256;8.874;2024-02-15T01:41:49;28.63;;;17.93;;
3733;SDS011;1882;52.256;8.874;2024-02-15T01:44:18;32.13;;;19.93;;
3733;SDS011;1882;52.256;8.874;2024-02-15T01:46:47;22.90;;;16.10;;
3733;SDS011;1882;52.256;8.874;2024-02-15T01:49:15;25.73;;;18.03;;
3733;SDS011;1882;52.256;8.874;2024-02-15T01:51:42;29.40;;;19.30;;
3733;SDS011;1882;52.256;8.874;2024-02-15T01:54:10;25.70;;;16.80;;
3733;SDS011;1882;52.256;8.874;2024-02-15T01:56:39;32.57;;;19.90;;
3733;SDS011;1882;52.256;8.874;2024-02-15T01:59:06;28.50;;;18.70;;
3733;SDS011;1882;52.256;8.874;2024-02-15T02:01:33;32.40;;;20.33;;
3733;SDS011;1882;52.256;8.874;2024-02-15T02:04:01;36.00;;;20.53;;
3733;SDS011;1882;52.256;8.874;2024-02-15T02:06:30;32.50;;;20.50;;
3733;SDS011;1882;52.256;8.874;2024-02-15T02:08:57;33.20;;;20.00;;
3733;SDS011;1882;52.256;8.874;2024-02-15T02:11:24;30.90;;;20.80;;
3733;SDS011;1882;52.256;8.874;2024-02-15T02:13:52;36.33;;;20.97;;
3733;SDS011;1882;52.256;8.874;2024-02-15T02:16:28;32.50;;;20.33;;
3733;SDS011;1882;52.256;8.874;2024-02-15T02:18:58;36.63;;;21.77;;
3733;SDS011;1882;52.256;8.874;2024-02-15T02:21:27;30.97;;;19.97;;
3733;SDS011;1882;52.256;8.874;2024-02-15T02:23:58;28.53;;;20.03;;
3733;SDS011;1882;52.256;8.874;2024-02-15T02:26:27;34.23;;;20.80;;
3733;SDS011;1882;52.256;8.874;2024-02-15T02:28:54;36.27;;;22.60;;
3733;SDS011;1882;52.256;8.874;2024-02-15T02:31:21;34.73;;;21.67;;
3733;SDS011;1882;52.256;8.874;2024-02-15T02:33:52;36.70;;;22.33;;
3733;SDS011;1882;52.256;8.874;2024-02-15T02:36:20;40.50;;;22.50;;
3733;SDS011;1882;52.256;8.874;2024-02-15T02:38:48;38.10;;;22.60;;
3733;SDS011;1882;52.256;8.874;2024-02-15T02:41:16;33.90;;;22.00;;
3733;SDS011;1882;52.256;8.874;2024-02-15T02:43:45;33.97;;;21.83;;
3733;SDS011;1882;52.256;8.874;2024-02-15T02:46:13;30.73;;;21.13;;
3733;SDS011;1882;52.256;8.874;2024-02-15T02:48:40;48.43;;;23.40;;
3733;SDS011;1882;52.256;8.874;2024-02-15T02:51:07;39.23;;;22.97;;
3733;SDS011;1882;52.256;8.874;2024-02-15T02:53:34;36.50;;;22.80;;
3733;SDS011;1882;52.256;8.874;2024-02-15T02:56:02;29.90;;;20.50;;
3733;SDS011;1882;52.256;8.874;2024-02-15T02:58:30;32.83;;;20.50;;
3733;SDS011;1882;52.256;8.874;2024-02-15T03:00:57;35.70;;;22.60;;
3733;SDS011;1882;52.256;8.874;2024-02-15T03:03:27;37.17;;;22.70;;
3733;SDS011;1882;52.256;8.874;2024-02-15T03:05:53;44.93;;;24.00;;
3733;SDS011;1882;52.256;8.874;2024-02-15T03:08:21;30.53;;;19.70;;
3733;SDS011;1882;52.256;8.874;2024-02-15T03:10:48;29.87;;;20.07;;
3733;SDS011;1882;52.256;8.874;2024-02-15T03:13:15;38.10;;;20.60;;
3733;SDS011;1882;52.256;8.874;2024-02-15T03:15:45;32.10;;;19.77;;
3733;SDS011;1882;52.256;8.874;2024-02-15T03:18:15;29.97;;;18.50;;
3733;SDS011;1882;52.256;8.874;2024-02-15T03:20:42;31.30;;;20.50;;
3733;SDS011;1882;52.256;8.874;2024-02-15T03:23:09;45.67;;;24.10;;
3733;SDS011;1882;52.256;8.874;2024-02-15T03:25:37;39.60;;;20.77;;
3733;SDS011;1882;52.256;8.874;2024-02-15T03:28:04;32.43;;;19.37;;
3733;SDS011;1882;52.256;8.874;2024-02-15T03:30:32;31.10;;;18.97;;
3733;SDS011;1882;52.256;8.874;2024-02-15T03:33:01;33.20;;;21.03;;
3733;SDS011;1882;52.256;8.874;2024-02-15T03:35:33;28.73;;;17.87;;
3733;SDS011;1882;52.256;8.874;2024-02-15T03:38:01;29.10;;;18.07;;
3733;SDS011;1882;52.256;8.874;2024-02-15T03:40:28;28.97;;;17.90;;
3733;SDS011;1882;52.256;8.874;2024-02-15T03:42:56;29.30;;;19.30;;
3733;SDS011;1882;52.256;8.874;2024-02-15T03:45:23;32.73;;;20.40;;
3733;SDS011;1882;52.256;8.874;2024-02-15T03:47:54;26.70;;;17.90;;
3733;SDS011;1882;52.256;8.874;2024-02-15T03:50:22;29.57;;;18.07;;
3733;SDS011;1882;52.256;8.874;2024-02-15T03:52:49;30.67;;;19.00;;
3733;SDS011;1882;52.256;8.874;2024-02-15T03:55:17;27.13;;;18.17;;
3733;SDS011;1882;52.256;8.874;2024-02-15T03:57:45;30.90;;;18.63;;
3733;SDS011;1882;52.256;8.874;2024-02-15T04:00:13;27.87;;;18.10;;
3733;SDS011;1882;52.256;8.874;2024-02-15T04:02:48;24.40;;;16.20;;
3733;SDS011;1882;52.256;8.874;2024-02-15T04:05:16;29.20;;;17.57;;
3733;SDS011;1882;52.256;8.874;2024-02-15T04:07:45;29.53;;;18.43;;
3733;SDS011;1882;52.256;8.874;2024-02-15T04:10:12;29.27;;;18.20;;
3733;SDS011;1882;52.256;8.874;2024-02-15T04:12:39;32.03;;;17.97;;
3733;SDS011;1882;52.256;8.874;2024-02-15T04:15:08;29.87;;;18.27;;
3733;SDS011;1882;52.256;8.874;2024-02-15T04:17:40;27.83;;;18.67;;
3733;SDS011;1882;52.256;8.874;2024-02-15T04:20:09;33.37;;;19.43;;
3733;SDS011;1882;52.256;8.874;2024-02-15T04:22:38;33.90;;;19.63;;
3733;SDS011;1882;52.256;8.874;2024-02-15T04:25:05;30.23;;;18.27;;
3733;SDS011;1882;52.256;8.874;2024-02-15T04:27:34;32.50;;;19.93;;
3733;SDS011;1882;52.256;8.874;2024-02-15T04:30:01;34.43;;;19.73;;
3733;SDS011;1882;52.256;8.874;2024-02-15T04:32:29;34.63;;;20.67;;
3733;SDS011;1882;52.256;8.874;2024-02-15T04:35:00;36.50;;;21.90;;
3733;SDS011;1882;52.256;8.874;2024-02-15T04:37:28;35.67;;;19.90;;
3733;SDS011;1882;52.256;8.874;2024-02-15T04:39:59;34.37;;;21.57;;
3733;SDS011;1882;52.256;8.874;2024-02-15T04:42:34;31.00;;;20.07;;
3733;SDS011;1882;52.256;8.874;2024-02-15T04:45:05;34.80;;;20.50;;
3733;SDS011;1882;52.256;8.874;2024-02-15T04:47:36;36.23;;;22.87;;
3733;SDS011;1882;52.256;8.874;2024-02-15T04:50:04;38.10;;;21.80;;
3733;SDS011;1882;52.256;8.874;2024-02-15T04:52:32;35.00;;;21.40;;
3733;SDS011;1882;52.256;8.874;2024-02-15T04:54:59;38.73;;;22.53;;
3733;SDS011;1882;52.256;8.874;2024-02-15T04:57:26;37.73;;;23.07;;
3733;SDS011;1882;52.256;8.874;2024-02-15T04:59:54;36.70;;;22.40;;
3733;SDS011;1882;52.256;8.874;2024-02-15T05:02:21;36.60;;;21.60;;
3733;SDS011;1882;52.256;8.874;2024-02-15T05:04:50;35.57;;;22.53;;
3733;SDS011;1882;52.256;8.874;2024-02-15T05:07:23;48.07;;;25.17;;
3733;SDS011;1882;52.256;8.874;2024-02-15T05:09:50;48.23;;;27.10;;
3733;SDS011;1882;52.256;8.874;2024-02-15T05:12:24;53.53;;;26.97;;
3733;SDS011;1882;52.256;8.874;2024-02-15T05:14:51;45.50;;;25.77;;
3733;SDS011;1882;52.256;8.874;2024-02-15T05:17:20;53.87;;;27.33;;
3733;SDS011;1882;52.256;8.874;2024-02-15T05:19:49;43.43;;;24.93;;
3733;SDS011;1882;52.256;8.874;2024-02-15T05:22:16;51.87;;;29.63;;
3733;SDS011;1882;52.256;8.874;2024-02-15T05:24:46;49.10;;;27.93;;
3733;SDS011;1882;52.256;8.874;2024-02-15T05:27:13;52.40;;;29.43;;
3733;SDS011;1882;52.256;8.874;2024-02-15T05:29:40;57.70;;;30.50;;
3733;SDS011;1882;52.256;8.874;2024-02-15T05:32:09;57.40;;;28.60;;
3733;SDS011;1882;52.256;8.874;2024-02-15T05:34:37;56.07;;;28.80;;
3733;SDS011;1882;52.256;8.874;2024-02-15T05:37:06;55.77;;;29.97;;
3733;SDS011;1882;52.256;8.874;2024-02-15T05:39:33;61.40;;;31.10;;
3733;SDS011;1882;52.256;8.874;2024-02-15T05:42:00;65.90;;;29.50;;
3733;SDS011;1882;52.256;8.874;2024-02-15T05:44:28;57.43;;;29.70;;
3733;SDS011;1882;52.256;8.874;2024-02-15T05:46:55;72.60;;;30.30;;
3733;SDS011;1882;52.256;8.874;2024-02-15T05:49:22;47.97;;;27.40;;
3733;SDS011;1882;52.256;8.874;2024-02-15T05:51:50;60.57;;;30.10;;
3733;SDS011;1882;52.256;8.874;2024-02-15T05:54:20;59.50;;;29.97;;
3733;SDS011;1882;52.256;8.874;2024-02-15T05:56:49;51.50;;;28.30;;
3733;SDS011;1882;52.256;8.874;2024-02-15T05:59:18;65.13;;;31.70;;
3733;SDS011;1882;52.256;8.874;2024-02-15T06:01:47;58.07;;;29.63;;
3733;SDS011;1882;52.256;8.874;2024-02-15T06:04:17;47.57;;;27.80;;
3733;SDS011;1882;52.256;8.874;2024-02-15T06:06:45;54.87;;;28.80;;
3733;SDS011;1882;52.256;8.874;2024-02-15T06:09:17;49.60;;;26.37;;
3733;SDS011;1882;52.256;8.874;2024-02-15T06:11:48;47.87;;;26.07;;
3733;SDS011;1882;52.256;8.874;2024-02-15T06:14:17;51.83;;;28.30;;
3733;SDS011;1882;52.256;8.874;2024-02-15T06:16:44;48.80;;;27.20;;
3733;SDS011;1882;52.256;8.874;2024-02-15T06:19:11;49.63;;;27.83;;
3733;SDS011;1882;52.256;8.874;2024-02-15T06:21:38;58.53;;;29.07;;
3733;SDS011;1882;52.256;8.874;2024-02-15T06:24:05;48.07;;;27.80;;
3733;SDS011;1882;52.256;8.874;2024-02-15T06:26:32;48.13;;;27.23;;
3733;SDS011;1882;52.256;8.874;2024-02-15T06:29:00;49.10;;;27.73;;
3733;SDS011;1882;52.256;8.874;2024-02-15T06:31:45;52.80;;;25.50;;
3733;SDS011;1882;52.256;8.874;2024-02-15T06:34:35;44.27;;;25.20;;
3733;SDS011;1882;52.256;8.874;2024-02-15T06:37:36;44.33;;;25.20;;
3733;SDS011;1882;52.256;8.874;2024-02-15T06:40:22;40.30;;;24.13;;
3733;SDS011;1882;52.256;8.874;2024-02-15T06:42:50;39.00;;;22.90;;
3733;SDS011;1882;52.256;8.874;2024-02-15T06:45:17;42.73;;;23.50;;
3733;SDS011;1882;52.256;8.874;2024-02-15T06:47:47;41.17;;;22.17;;
3733;SDS011;1882;52.256;8.874;2024-02-15T06:50:14;33.83;;;19.70;;
3733;SDS011;1882;52.256;8.874;2024-02-15T06:52:41;32.07;;;18.43;;
3733;SDS011;1882;52.256;8.874;2024-02-15T06:55:08;37.27;;;20.17;;
3733;SDS011;1882;52.256;8.874;2024-02-15T06:57:38;31.03;;;19.03;;
3733;SDS011;1882;52.256;8.874;2024-02-15T07:00:09;29.00;;;17.60;;
3733;SDS011;1882;52.256;8.874;2024-02-15T07:02:42;34.00;;;17.80;;
3733;SDS011;1882;52.256;8.874;2024-02-15T07:05:11;26.43;;;15.80;;
3733;SDS011;1882;52.256;8.874;2024-02-15T07:07:37;23.40;;;15.67;;
3733;SDS011;1882;52.256;8.874;2024-02-15T07:10:05;23.93;;;15.47;;
3733;SDS011;1882;52.256;8.874;2024-02-15T07:12:33;22.60;;;14.07;;
3733;SDS011;1882;52.256;8.874;2024-02-15T07:15:00;20.57;;;14.03;;
3733;SDS011;1882;52.256;8.874;2024-02-15T07:17:32;19.90;;;13.07;;
3733;SDS011;1882;52.256;8.874;2024-02-15T07:19:59;22.23;;;13.23;;
3733;SDS011;1882;52.256;8.874;2024-02-15T07:22:26;19.77;;;12.40;;
3733;SDS011;1882;52.256;8.874;2024-02-15T07:24:53;20.20;;;12.07;;
3733;SDS011;1882;52.256;8.874;2024-02-15T07:27:20;17.23;;;12.50;;
3733;SDS011;1882;52.256;8.874;2024-02-15T07:29:50;18.73;;;11.37;;
3733;SDS011;1882;52.256;8.874;2024-02-15T07:32:17;18.27;;;12.40;;
3733;SDS011;1882;52.256;8.874;2024-02-15T07:34:44;16.17;;;11.70;;
3733;SDS011;1882;52.256;8.874;2024-02-15T07:37:12;20.30;;;12.60;;
3733;SDS011;1882;52.256;8.874;2024-02-15T07:39:39;15.47;;;10.33;;
3733;SDS011;1882;52.256;8.874;2024-02-15T07:42:06;12.53;;;9.67;;
3733;SDS011;1882;52.256;8.874;2024-02-15T07:44:35;16.90;;;10.30;;
3733;SDS011;1882;52.256;8.874;2024-02-15T07:47:03;17.93;;;9.87;;
3733;SDS011;1882;52.256;8.874;2024-02-15T07:49:31;10.17;;;8.17;;
3733;SDS011;1882;52.256;8.874;2024-02-15T07:52:00;14.60;;;10.07;;
3733;SDS011;1882;52.256;8.874;2024-02-15T07:54:27;12.70;;;9.07;;
3733;SDS011;1882;52.256;8.874;2024-02-15T07:56:56;9.90;;;7.90;;
3733;SDS011;1882;52.256;8.874;2024-02-15T07:59:24;11.20;;;8.10;;
3733;SDS011;1882;52.256;8.874;2024-02-15T08:01:51;12.20;;;7.67;;
3733;SDS011;1882;52.256;8.874;2024-02-15T08:04:18;10.67;;;7.90;;
3733;SDS011;1882;52.256;8.874;2024-02-15T08:06:47;10.00;;;7.33;;
3733;SDS011;1882;52.256;8.874;2024-02-15T08:09:15;13.10;;;7.07;;
3733;SDS011;1882;52.256;8.874;2024-02-15T08:11:44;13.80;;;7.57;;
3733;SDS011;1882;52.256;8.874;2024-02-15T08:14:11;10.50;;;7.37;;
3733;SDS011;1882;52.256;8.874;2024-02-15T08:16:39;14.00;;;7.20;;
3733;SDS011;1882;52.256;8.874;2024-02-15T08:19:09;11.00;;;6.20;;
3733;SDS011;1882;52.256;8.874;2024-02-15T08:21:37;8.23;;;5.47;;
3733;SDS011;1882;52.256;8.874;2024-02-15T08:24:07;10.23;;;6.07;;
3733;SDS011;1882;52.256;8.874;2024-02-15T08:26:36;7.00;;;5.50;;
3733;SDS011;1882;52.256;8.874;2024-02-15T08:29:10;7.30;;;5.77;;
3733;SDS011;1882;52.256;8.874;2024-02-15T08:31:38;8.23;;;5.37;;
3733;SDS011;1882;52.256;8.874;2024-02-15T08:34:07;8.53;;;5.43;;
3733;SDS011;1882;52.256;8.874;2024-02-15T08:36:37;8.10;;;4.73;;
3733;SDS011;1882;52.256;8.874;2024-02-15T08:39:06;7.53;;;4.87;;
3733;SDS011;1882;52.256;8.874;2024-02-15T08:41:34;6.80;;;4.90;;
3733;SDS011;1882;52.256;8.874;2024-02-15T08:44:02;7.50;;;4.33;;
3733;SDS011;1882;52.256;8.874;2024-02-15T08:46:32;5.80;;;4.73;;
3733;SDS011;1882;52.256;8.874;2024-02-15T08:48:59;8.20;;;4.60;;
3733;SDS011;1882;52.256;8.874;2024-02-15T08:51:27;11.70;;;4.73;;
3733;SDS011;1882;52.256;8.874;2024-02-15T08:53:54;4.70;;;4.10;;
3733;SDS011;1882;52.256;8.874;2024-02-15T08:56:24;5.90;;;3.70;;
3733;SDS011;1882;52.256;8.874;2024-02-15T08:58:51;8.17;;;4.33;;
3733;SDS011;1882;52.256;8.874;2024-02-15T09:01:18;7.70;;;4.50;;
3733;SDS011;1882;52.256;8.874;2024-02-15T09:03:45;6.77;;;3.93;;
3733;SDS011;1882;52.256;8.874;2024-02-15T09:06:12;5.67;;;3.93;;
3733;SDS011;1882;52.256;8.874;2024-02-15T09:08:39;10.20;;;4.10;;
3733;SDS011;1882;52.256;8.874;2024-02-15T09:11:06;4.40;;;3.67;;
3733;SDS011;1882;52.256;8.874;2024-02-15T09:13:38;9.43;;;4.07;;
3733;SDS011;1882;52.256;8.874;2024-02-15T09:16:05;5.63;;;3.60;;
3733;SDS011;1882;52.256;8.874;2024-02-15T09:18:32;5.73;;;4.03;;
3733;SDS011;1882;52.256;8.874;2024-02-15T09:21:00;6.10;;;3.80;;
3733;SDS011;1882;52.256;8.874;2024-02-15T09:23:27;6.47;;;3.60;;
3733;SDS011;1882;52.256;8.874;2024-02-15T09:25:54;6.63;;;3.73;;
3733;SDS011;1882;52.256;8.874;2024-02-15T09:28:21;4.70;;;4.03;;
3733;SDS011;1882;52.256;8.874;2024-02-15T09:30:49;4.97;;;3.27;;
3733;SDS011;1882;52.256;8.874;2024-02-15T09:33:20;13.03;;;4.00;;
3733;SDS011;1882;52.256;8.874;2024-02-15T09:35:48;3.63;;;3.30;;
3733;SDS011;1882;52.256;8.874;2024-02-15T09:38:15;9.90;;;4.07;;
3733;SDS011;1882;52.256;8.874;2024-02-15T09:40:43;6.53;;;3.90;;
3733;SDS011;1882;52.256;8.874;2024-02-15T09:43:10;6.23;;;4.40;;
3733;SDS011;1882;52.256;8.874;2024-02-15T09:45:41;8.47;;;4.30;;
3733;SDS011;1882;52.256;8.874;2024-02-15T09:48:09;7.50;;;4.20;;
3733;SDS011;1882;52.256;8.874;2024-02-15T09:50:39;5.57;;;3.80;;
3733;SDS011;1882;52.256;8.874;2024-02-15T09:53:12;4.87;;;3.80;;
3733;SDS011;1882;52.256;8.874;2024-02-15T09:55:41;7.30;;;3.70;;
3733;SDS011;1882;52.256;8.874;2024-02-15T09:58:09;6.57;;;3.97;;
3733;SDS011;1882;52.256;8.874;2024-02-15T10:00:38;4.67;;;4.20;;
3733;SDS011;1882;52.256;8.874;2024-02-15T10:03:05;8.30;;;3.83;;
3733;SDS011;1882;52.256;8.874;2024-02-15T10:05:36;7.37;;;3.70;;
3733;SDS011;1882;52.256;8.874;2024-02-15T10:08:06;10.03;;;3.80;;
3733;SDS011;1882;52.256;8.874;2024-02-15T10:10:33;5.67;;;3.90;;
3733;SDS011;1882;52.256;8.874;2024-02-15T10:13:02;6.97;;;3.47;;
3733;SDS011;1882;52.256;8.874;2024-02-15T10:20:32;9.20;;;4.07;;
3733;SDS011;1882;52.256;8.874;2024-02-15T10:25:33;8.90;;;4.43;;
3733;SDS011;1882;52.256;8.874;2024-02-15T10:30:43;5.70;;;3.77;;
3733;SDS011;1882;52.256;8.874;2024-02-15T10:33:19;9.87;;;3.67;;
3733;SDS011;1882;52.256;8.874;2024-02-15T10:36:05;7.43;;;3.97;;
3733;SDS011;1882;52.256;8.874;2024-02-15T10:38:36;5.57;;;3.80;;
3733;SDS011;1882;52.256;8.874;2024-02-15T10:41:03;4.83;;;3.77;;
3733;SDS011;1882;52.256;8.874;2024-02-15T10:43:34;4.83;;;3.93;;
3733;SDS011;1882;52.256;8.874;2024-02-15T10:46:03;7.43;;;3.93;;
3733;SDS011;1882;52.256;8.874;2024-02-15T10:48:31;11.53;;;4.40;;
3733;SDS011;1882;52.256;8.874;2024-02-15T10:50:59;9.63;;;4.20;;
3733;SDS011;1882;52.256;8.874;2024-02-15T10:53:28;5.83;;;3.67;;
3733;SDS011;1882;52.256;8.874;2024-02-15T10:58:33;5.67;;;3.93;;
3733;SDS011;1882;52.256;8.874;2024-02-15T11:01:07;6.23;;;3.77;;
3733;SDS011;1882;52.256;8.874;2024-02-15T11:03:40;5.97;;;3.50;;
3733;SDS011;1882;52.256;8.874;2024-02-15T11:06:18;8.50;;;4.30;;
3733;SDS011;1882;52.256;8.874;2024-02-15T11:08:48;7.27;;;3.87;;
3733;SDS011;1882;52.256;8.874;2024-02-15T11:11:15;9.33;;;3.77;;
3733;SDS011;1882;52.256;8.874;2024-02-15T11:13:44;4.27;;;3.80;;
3733;SDS011;1882;52.256;8.874;2024-02-15T11:16:38;6.70;;;3.87;;
3733;SDS011;1882;52.256;8.874;2024-02-15T11:19:06;6.60;;;3.70;;
3733;SDS011;1882;52.256;8.874;2024-02-15T11:21:52;6.37;;;3.43;;
3733;SDS011;1882;52.256;8.874;2024-02-15T11:26:58;5.63;;;3.30;;
3733;SDS011;1882;52.256;8.874;2024-02-15T11:32:41;6.77;;;3.47;;
3733;SDS011;1882;52.256;8.874;2024-02-15T11:42:51;5.47;;;3.33;;
3733;SDS011;1882;52.256;8.874;2024-02-15T11:45:28;4.20;;;3.53;;
3733;SDS011;1882;52.256;8.874;2024-02-15T11:48:08;4.73;;;3.30;;
3733;SDS011;1882;52.256;8.874;2024-02-15T11:50:40;3.77;;;2.97;;
3733;SDS011;1882;52.256;8.874;2024-02-15T11:53:08;4.73;;;3.07;;
3733;SDS011;1882;52.256;8.874;2024-02-15T11:55:37;4.00;;;2.90;;
3733;SDS011;1882;52.256;8.874;2024-02-15T11:58:05;3.57;;;3.20;;
3733;SDS011;1882;52.256;8.874;2024-02-15T12:00:38;7.93;;;3.10;;
3733;SDS011;1882;52.256;8.874;2024-02-15T12:03:24;6.10;;;3.00;;
3733;SDS011;1882;52.256;8.874;2024-02-15T12:06:30;6.80;;;3.63;;
3733;SDS011;1882;52.256;8.874;2024-02-15T12:09:20;7.83;;;2.97;;
3733;SDS011;1882;52.256;8.874;2024-02-15T12:12:06;5.73;;;3.07;;
3733;SDS011;1882;52.256;8.874;2024-02-15T12:15:02;5.47;;;3.93;;
3733;SDS011;1882;52.256;8.874;2024-02-15T12:17:48;3.53;;;3.00;;
3733;SDS011;1882;52.256;8.874;2024-02-15T12:20:34;6.10;;;2.87;;
3733;SDS011;1882;52.256;8.874;2024-02-15T12:23:01;3.43;;;2.90;;
3733;SDS011;1882;52.256;8.874;2024-02-15T12:25:28;4.73;;;3.50;;
3733;SDS011;1882;52.256;8.874;2024-02-15T12:28:00;4.43;;;2.97;;
3733;SDS011;1882;52.256;8.874;2024-02-15T12:30:32;6.13;;;3.47;;
3733;SDS011;1882;52.256;8.874;2024-02-15T12:33:10;4.50;;;3.50;;
3733;SDS011;1882;52.256;8.874;2024-02-15T12:35:38;4.90;;;3.40;;
3733;SDS011;1882;52.256;8.874;2024-02-15T12:38:05;4.60;;;3.30;;
3733;SDS011;1882;52.256;8.874;2024-02-15T12:40:35;7.40;;;3.60;;
3733;SDS011;1882;52.256;8.874;2024-02-15T12:43:06;5.00;;;3.20;;
3733;SDS011;1882;52.256;8.874;2024-02-15T12:45:35;5.87;;;3.83;;
3733;SDS011;1882;52.256;8.874;2024-02-15T12:48:04;4.00;;;3.33;;
3733;SDS011;1882;52.256;8.874;2024-02-15T12:50:32;5.57;;;4.27;;
3733;SDS011;1882;52.256;8.874;2024-02-15T12:53:00;5.07;;;3.00;;
3733;SDS011;1882;52.256;8.874;2024-02-15T12:55:33;4.80;;;2.97;;
3733;SDS011;1882;52.256;8.874;2024-02-15T12:58:05;3.57;;;3.00;;
3733;SDS011;1882;52.256;8.874;2024-02-15T13:00:36;4.97;;;3.03;;
3733;SDS011;1882;52.256;8.874;2024-02-15T13:03:07;4.57;;;3.10;;
3733;SDS011;1882;52.256;8.874;2024-02-15T13:05:38;4.97;;;3.33;;
3733;SDS011;1882;52.256;8.874;2024-02-15T13:08:07;3.53;;;2.90;;
3733;SDS011;1882;52.256;8.874;2024-02-15T13:10:40;4.63;;;3.40;;
3733;SDS011;1882;52.256;8.874;2024-02-15T13:13:07;5.40;;;3.20;;
3733;SDS011;1882;52.256;8.874;2024-02-15T13:15:38;3.40;;;2.67;;
3733;SDS011;1882;52.256;8.874;2024-02-15T13:18:06;4.40;;;2.50;;
3733;SDS011;1882;52.256;8.874;2024-02-15T13:20:37;5.30;;;3.10;;
3733;SDS011;1882;52.256;8.874;2024-02-15T13:23:05;3.43;;;3.10;;
3733;SDS011;1882;52.256;8.874;2024-02-15T13:25:41;4.33;;;2.83;;
3733;SDS011;1882;52.256;8.874;2024-02-15T13:28:11;4.87;;;2.70;;
3733;SDS011;1882;52.256;8.874;2024-02-15T13:30:40;4.90;;;2.60;;
3733;SDS011;1882;52.256;8.874;2024-02-15T13:33:09;6.50;;;2.30;;
3733;SDS011;1882;52.256;8.874;2024-02-15T13:35:36;3.40;;;2.40;;
3733;SDS011;1882;52.256;8.874;2024-02-15T13:38:04;4.60;;;2.60;;
3733;SDS011;1882;52.256;8.874;2024-02-15T13:40:31;4.47;;;2.40;;
3733;SDS011;1882;52.256;8.874;2024-02-15T13:42:58;4.73;;;2.50;;
3733;SDS011;1882;52.256;8.874;2024-02-15T13:45:29;4.30;;;2.30;;
3733;SDS011;1882;52.256;8.874;2024-02-15T13:48:00;3.80;;;2.20;;
3733;SDS011;1882;52.256;8.874;2024-02-15T13:50:31;4.93;;;2.17;;
3733;SDS011;1882;52.256;8.874;2024-02-15T13:52:59;3.47;;;2.90;;
3733;SDS011;1882;52.256;8.874;2024-02-15T13:55:26;4.23;;;2.30;;
3733;SDS011;1882;52.256;8.874;2024-02-15T13:57:54;3.50;;;2.30;;
3733;SDS011;1882;52.256;8.874;2024-02-15T14:00:25;3.53;;;2.10;;
3733;SDS011;1882;52.256;8.874;2024-02-15T14:02:57;3.10;;;2.03;;
3733;SDS011;1882;52.256;8.874;2024-02-15T14:05:29;3.83;;;2.33;;
3733;SDS011;1882;52.256;8.874;2024-02-15T14:07:57;3.90;;;1.97;;
3733;SDS011;1882;52.256;8.874;2024-02-15T14:10:27;4.70;;;2.10;;
3733;SDS011;1882;52.256;8.874;2024-02-15T14:12:56;3.97;;;2.27;;
3733;SDS011;1882;52.256;8.874;2024-02-15T14:15:31;5.53;;;2.20;;
3733;SDS011;1882;52.256;8.874;2024-02-15T14:18:08;2.37;;;2.10;;
3733;SDS011;1882;52.256;8.874;2024-02-15T14:20:38;9.90;;;2.57;;
3733;SDS011;1882;52.256;8.874;2024-02-15T14:23:05;5.10;;;3.93;;
3733;SDS011;1882;52.256;8.874;2024-02-15T14:25:33;6.57;;;2.47;;
3733;SDS011;1882;52.256;8.874;2024-02-15T14:28:01;3.47;;;2.50;;
3733;SDS011;1882;52.256;8.874;2024-02-15T14:30:29;5.50;;;2.00;;
3733;SDS011;1882;52.256;8.874;2024-02-15T14:33:15;2.97;;;2.30;;
3733;SDS011;1882;52.256;8.874;2024-02-15T14:35:45;6.20;;;2.87;;
3733;SDS011;1882;52.256;8.874;2024-02-15T14:38:13;6.37;;;2.00;;
3733;SDS011;1882;52.256;8.874;2024-02-15T14:40:45;4.33;;;2.00;;
3733;SDS011;1882;52.256;8.874;2024-02-15T14:43:22;3.47;;;2.03;;
3733;SDS011;1882;52.256;8.874;2024-02-15T14:45:53;2.40;;;1.90;;
3733;SDS011;1882;52.256;8.874;2024-02-15T14:48:20;5.67;;;2.10;;
3733;SDS011;1882;52.256;8.874;2024-02-15T14:50:50;4.50;;;2.10;;
3733;SDS011;1882;52.256;8.874;2024-02-15T14:53:18;3.47;;;2.17;;
3733;SDS011;1882;52.256;8.874;2024-02-15T14:55:45;2.70;;;1.90;;
3733;SDS011;1882;52.256;8.874;2024-02-15T14:58:13;5.50;;;2.07;;
3733;SDS011;1882;52.256;8.874;2024-02-15T15:00:43;3.63;;;1.70;;
3733;SDS011;1882;52.256;8.874;2024-02-15T15:03:12;4.00;;;2.00;;
3733;SDS011;1882;52.256;8.874;2024-02-15T15:05:40;2.50;;;1.90;;
3733;SDS011;1882;52.256;8.874;2024-02-15T15:08:26;3.10;;;1.73;;
3733;SDS011;1882;52.256;8.874;2024-02-15T15:11:12;3.17;;;2.10;;
3733;SDS011;1882;52.256;8.874;2024-02-15T15:13:58;3.93;;;2.00;;
3733;SDS011;1882;52.256;8.874;2024-02-15T15:16:25;2.40;;;1.70;;
3733;SDS011;1882;52.256;8.874;2024-02-15T15:18:54;3.43;;;1.90;;
3733;SDS011;1882;52.256;8.874;2024-02-15T15:21:22;3.87;;;1.80;;
3733;SDS011;1882;52.256;8.874;2024-02-15T15:23:50;5.50;;;2.13;;
3733;SDS011;1882;52.256;8.874;2024-02-15T15:26:19;5.80;;;2.20;;
3733;SDS011;1882;52.256;8.874;2024-02-15T15:28:47;2.17;;;1.87;;
3733;SDS011;1882;52.256;8.874;2024-02-15T15:31:15;2.57;;;1.90;;
3733;SDS011;1882;52.256;8.874;2024-02-15T15:33:42;4.70;;;2.43;;
3733;SDS011;1882;52.256;8.874;2024-02-15T15:36:10;6.90;;;2.00;;
3733;SDS011;1882;52.256;8.874;2024-02-15T15:38:38;4.10;;;1.97;;
3733;SDS011;1882;52.256;8.874;2024-02-15T15:41:06;4.70;;;2.37;;